createdAt,value
2017-09-16T00:00:35.239Z,2.97
2017-09-16T00:03:02.703Z,2.80
2017-09-16T00:05:30.162Z,3.20
2017-09-16T00:07:57.605Z,3.10
2017-09-16T00:10:25.052Z,3.03
2017-09-16T00:12:52.553Z,2.90
2017-09-16T00:15:20.012Z,3.27
2017-09-16T00:17:47.491Z,3.07
2017-09-16T00:20:14.936Z,2.90
2017-09-16T00:22:42.379Z,3.13
2017-09-16T00:25:09.823Z,3.10
2017-09-16T00:27:37.266Z,3.70
2017-09-16T00:30:05.480Z,2.80
2017-09-16T00:32:32.934Z,2.70
2017-09-16T00:35:00.391Z,2.40
2017-09-16T00:37:27.838Z,2.53
2017-09-16T00:39:56.040Z,2.73
2017-09-16T00:42:23.504Z,3.17
2017-09-16T00:44:50.943Z,3.40
2017-09-16T00:47:19.154Z,2.60
2017-09-16T00:49:46.630Z,2.73
2017-09-16T00:52:14.098Z,3.63
2017-09-16T00:54:41.549Z,2.90
2017-09-16T00:57:09.028Z,2.33
2017-09-16T00:59:36.479Z,3.27
2017-09-16T01:02:03.918Z,2.67
2017-09-16T01:04:31.415Z,3.37
2017-09-16T01:06:58.863Z,3.53
2017-09-16T01:09:26.342Z,2.90
2017-09-16T01:11:53.787Z,2.77
2017-09-16T01:14:21.232Z,2.47
2017-09-16T01:16:48.688Z,2.57
2017-09-16T01:19:16.891Z,2.10
2017-09-16T01:21:44.380Z,2.03
2017-09-16T01:24:11.837Z,2.57
2017-09-16T01:26:39.301Z,2.50
2017-09-16T01:29:06.769Z,3.00
2017-09-16T01:31:34.229Z,2.67
2017-09-16T01:34:01.671Z,3.40
2017-09-16T01:36:29.127Z,2.80
2017-09-16T01:38:56.579Z,2.67
2017-09-16T01:41:24.016Z,3.10
2017-09-16T01:43:52.272Z,2.63
2017-09-16T01:46:19.726Z,2.03
2017-09-16T01:48:47.875Z,2.47
2017-09-16T01:51:15.334Z,2.70
2017-09-16T01:53:42.827Z,2.40
2017-09-16T01:56:10.292Z,2.93
2017-09-16T01:58:37.847Z,3.00
2017-09-16T02:01:05.288Z,2.70
2017-09-16T02:03:32.737Z,2.57
2017-09-16T02:06:00.197Z,2.30
2017-09-16T02:08:28.406Z,3.00
2017-09-16T02:10:55.855Z,2.50
2017-09-16T02:13:23.296Z,2.47
2017-09-16T02:15:50.798Z,1.90
2017-09-16T02:18:18.267Z,2.10
2017-09-16T02:20:45.729Z,1.90
2017-09-16T02:23:13.195Z,1.97
2017-09-16T02:25:41.049Z,1.90
2017-09-16T02:28:08.503Z,2.23
2017-09-16T02:30:35.956Z,1.90
2017-09-16T02:33:03.416Z,2.03
2017-09-16T02:35:30.860Z,2.30
2017-09-16T02:37:59.084Z,2.10
2017-09-16T02:40:26.535Z,2.50
2017-09-16T02:42:54.449Z,2.17
2017-09-16T02:45:22.659Z,2.47
2017-09-16T02:47:50.868Z,2.30
2017-09-16T02:50:18.376Z,2.37
2017-09-16T02:52:45.823Z,2.67
2017-09-16T02:55:13.279Z,2.23
2017-09-16T02:57:40.739Z,2.50
2017-09-16T03:00:08.196Z,2.40
2017-09-16T03:02:35.668Z,2.43
2017-09-16T03:05:03.236Z,3.13
2017-09-16T03:07:30.707Z,2.43
2017-09-16T03:09:58.147Z,2.70
2017-09-16T03:12:25.598Z,3.07
2017-09-16T03:14:53.050Z,3.07
2017-09-16T03:17:20.539Z,3.20
2017-09-16T03:19:47.976Z,3.10
2017-09-16T03:22:15.436Z,3.07
2017-09-16T03:24:42.875Z,2.63
2017-09-16T03:27:11.113Z,3.20
2017-09-16T03:29:38.584Z,3.23
2017-09-16T03:32:06.005Z,2.83
2017-09-16T03:34:33.487Z,2.87
2017-09-16T03:37:00.940Z,2.87
2017-09-16T03:39:28.405Z,2.83
2017-09-16T03:41:55.896Z,2.30
2017-09-16T03:44:23.364Z,3.40
2017-09-16T03:46:50.806Z,2.20
2017-09-16T03:49:18.265Z,2.80
2017-09-16T03:51:45.718Z,3.07
2017-09-16T03:54:13.148Z,2.33
2017-09-16T03:56:41.383Z,2.20
2017-09-16T03:59:08.824Z,3.00
2017-09-16T04:01:48.214Z,2.63
2017-09-16T04:04:15.669Z,2.97
2017-09-16T04:06:43.123Z,2.83
2017-09-16T04:09:10.555Z,3.00
2017-09-16T04:11:38.028Z,2.97
2017-09-16T04:14:05.458Z,2.73
2017-09-16T04:16:32.904Z,2.80
2017-09-16T04:19:01.123Z,3.00
2017-09-16T04:21:28.570Z,2.60
2017-09-16T04:23:56.019Z,3.00
2017-09-16T04:26:23.532Z,2.90
2017-09-16T04:28:51.087Z,3.90
2017-09-16T04:31:18.530Z,3.50
2017-09-16T04:33:46.016Z,2.97
2017-09-16T04:36:13.490Z,3.00
2017-09-16T04:38:40.935Z,2.83
2017-09-16T04:41:08.386Z,3.17
2017-09-16T04:43:35.831Z,2.83
2017-09-16T04:46:03.304Z,3.10
2017-09-16T04:48:30.766Z,3.47
2017-09-16T04:50:58.208Z,3.03
2017-09-16T04:53:26.423Z,3.70
2017-09-16T04:55:53.871Z,3.53
2017-09-16T04:58:21.320Z,3.20
2017-09-16T05:00:48.765Z,2.90
2017-09-16T05:03:17.000Z,3.43
2017-09-16T05:05:44.450Z,2.50
2017-09-16T05:08:11.928Z,2.90
2017-09-16T05:10:39.387Z,4.03
2017-09-16T05:13:06.831Z,3.23
2017-09-16T05:15:34.290Z,2.70
2017-09-16T05:18:01.731Z,2.87
2017-09-16T05:20:29.955Z,3.17
2017-09-16T05:22:57.397Z,2.70
2017-09-16T05:25:24.865Z,3.30
2017-09-16T05:27:52.286Z,3.23
2017-09-16T05:30:20.515Z,2.80
2017-09-16T05:32:47.964Z,2.73
2017-09-16T05:35:16.272Z,3.43
2017-09-16T05:37:43.831Z,2.80
2017-09-16T05:40:11.276Z,2.40
2017-09-16T05:42:38.737Z,2.90
2017-09-16T05:45:06.184Z,2.93
2017-09-16T05:47:33.639Z,2.30
2017-09-16T05:50:01.864Z,2.40
2017-09-16T05:52:29.327Z,3.10
2017-09-16T05:54:56.772Z,3.40
2017-09-16T05:57:24.215Z,2.37
2017-09-16T05:59:51.668Z,2.53
2017-09-16T06:02:19.876Z,2.90
2017-09-16T06:04:47.355Z,2.67
2017-09-16T06:07:14.799Z,3.10
2017-09-16T06:09:42.260Z,2.90
2017-09-16T06:12:09.695Z,2.73
2017-09-16T06:14:37.923Z,3.60
2017-09-16T06:17:05.363Z,2.57
2017-09-16T06:19:32.807Z,2.80
2017-09-16T06:22:01.023Z,3.10
2017-09-16T06:24:28.467Z,2.50
2017-09-16T06:26:55.935Z,2.90
2017-09-16T06:29:23.367Z,2.80
2017-09-16T06:31:51.583Z,3.13
2017-09-16T06:34:19.019Z,2.53
2017-09-16T06:36:46.504Z,3.33
2017-09-16T06:39:13.948Z,2.73
2017-09-16T06:41:41.380Z,2.97
2017-09-16T06:44:08.907Z,3.10
2017-09-16T06:46:36.351Z,2.73
2017-09-16T06:49:03.794Z,2.97
2017-09-16T06:51:31.231Z,2.70
2017-09-16T06:53:59.456Z,2.73
2017-09-16T06:56:26.898Z,2.57
2017-09-16T06:58:54.405Z,2.40
2017-09-16T07:01:21.843Z,3.00
2017-09-16T07:03:49.311Z,3.10
2017-09-16T07:06:16.759Z,3.20
2017-09-16T07:08:44.203Z,3.40
2017-09-16T07:11:12.430Z,2.90
2017-09-16T07:13:39.887Z,2.73
2017-09-16T07:16:07.352Z,2.60
2017-09-16T07:18:34.800Z,3.27
2017-09-16T07:21:02.265Z,2.87
2017-09-16T07:23:29.691Z,2.80
2017-09-16T07:25:57.923Z,2.80
2017-09-16T07:28:25.360Z,2.50
2017-09-16T07:30:52.801Z,3.43
2017-09-16T07:33:21.020Z,2.93
2017-09-16T07:35:48.478Z,2.50
2017-09-16T07:38:15.945Z,3.10
2017-09-16T07:40:43.876Z,3.13
2017-09-16T07:43:12.464Z,3.20
2017-09-16T07:45:40.673Z,3.00
2017-09-16T07:48:08.140Z,2.90
2017-09-16T07:50:35.581Z,3.17
2017-09-16T07:53:03.047Z,3.03
2017-09-16T07:55:30.489Z,2.70
2017-09-16T07:57:58.695Z,3.33
2017-09-16T08:00:26.155Z,3.57
2017-09-16T08:02:53.600Z,3.03
2017-09-16T08:05:21.827Z,3.00
2017-09-16T08:07:49.273Z,3.70
2017-09-16T08:10:16.768Z,3.20
2017-09-16T08:12:44.218Z,3.37
2017-09-16T08:15:11.665Z,3.20
2017-09-16T08:17:39.141Z,3.60
2017-09-16T08:20:06.717Z,2.90
2017-09-16T08:22:34.693Z,4.00
2017-09-16T08:25:02.148Z,3.63
2017-09-16T08:27:29.602Z,3.00
2017-09-16T08:29:57.052Z,2.93
2017-09-16T08:32:24.517Z,3.90
2017-09-16T08:34:51.966Z,3.20
2017-09-16T08:37:19.424Z,3.10
2017-09-16T08:39:46.897Z,3.27
2017-09-16T08:42:14.349Z,4.03
2017-09-16T08:44:41.804Z,2.80
2017-09-16T08:47:10.026Z,3.20
2017-09-16T08:49:37.475Z,2.60
2017-09-16T08:52:04.915Z,3.07
2017-09-16T08:54:32.390Z,2.83
2017-09-16T08:56:59.848Z,2.50
2017-09-16T08:59:27.304Z,2.47
2017-09-16T09:01:54.756Z,3.50
2017-09-16T09:04:22.987Z,4.50
2017-09-16T09:06:50.431Z,3.13
2017-09-16T09:09:17.915Z,2.90
2017-09-16T09:11:45.372Z,2.83
2017-09-16T09:14:12.939Z,2.27
2017-09-16T09:16:41.361Z,2.40
2017-09-16T09:19:09.572Z,2.33
2017-09-16T09:21:37.026Z,2.10
2017-09-16T09:24:04.470Z,1.80
2017-09-16T09:26:31.924Z,1.80
2017-09-16T09:28:59.382Z,1.80
2017-09-16T09:31:26.929Z,1.73
2017-09-16T09:33:54.376Z,1.60
2017-09-16T09:36:21.828Z,1.60
2017-09-16T09:38:49.274Z,1.10
2017-09-16T09:41:16.751Z,1.00
2017-09-16T09:43:44.189Z,1.10
2017-09-16T09:46:12.413Z,0.90
2017-09-16T09:48:39.872Z,1.00
2017-09-16T09:51:07.313Z,0.80
2017-09-16T09:53:34.768Z,1.10
2017-09-16T09:56:02.207Z,1.30
2017-09-16T09:58:30.433Z,1.00
2017-09-16T10:00:57.881Z,0.90
2017-09-16T10:03:25.335Z,0.93
2017-09-16T10:05:53.558Z,0.83
2017-09-16T10:08:21.038Z,0.83
2017-09-16T10:10:49.297Z,1.13
2017-09-16T10:13:16.747Z,0.73
2017-09-16T10:15:44.195Z,0.80
2017-09-16T10:18:11.635Z,0.90
2017-09-16T10:20:39.847Z,1.10
2017-09-16T10:23:07.300Z,1.00
2017-09-16T10:25:34.783Z,1.00
2017-09-16T10:28:02.236Z,1.10
2017-09-16T10:30:29.711Z,1.30
2017-09-16T10:32:57.162Z,1.20
2017-09-16T10:35:24.591Z,1.00
2017-09-16T10:37:52.821Z,0.80
2017-09-16T10:40:20.297Z,0.90
2017-09-16T10:42:47.736Z,1.20
2017-09-16T10:45:15.324Z,0.90
2017-09-16T10:47:42.783Z,1.30
2017-09-16T10:50:10.343Z,1.00
2017-09-16T10:52:38.575Z,0.90
2017-09-16T10:55:06.791Z,1.10
2017-09-16T10:57:34.240Z,1.33
2017-09-16T11:00:01.711Z,1.33
2017-09-16T11:02:29.160Z,0.93
2017-09-16T11:04:56.622Z,1.10
2017-09-16T11:07:24.151Z,1.20
2017-09-16T11:09:52.380Z,1.03
2017-09-16T11:12:19.818Z,1.10
2017-09-16T11:14:47.250Z,1.37
2017-09-16T11:17:16.208Z,1.10
2017-09-16T11:19:43.640Z,1.30
2017-09-16T11:22:11.104Z,1.20
2017-09-16T11:24:38.564Z,1.13
2017-09-16T11:27:06.110Z,1.37
2017-09-16T11:29:34.347Z,1.70
2017-09-16T11:32:01.814Z,1.30
2017-09-16T11:34:29.247Z,1.20
2017-09-16T11:36:56.732Z,1.10
2017-09-16T11:39:31.781Z,1.03
2017-09-16T11:41:59.246Z,1.13
2017-09-16T11:44:26.703Z,0.93
2017-09-16T11:46:54.139Z,1.10
2017-09-16T11:49:21.596Z,1.20
2017-09-16T11:51:49.041Z,1.33
2017-09-16T11:54:16.511Z,0.90
2017-09-16T11:56:44.011Z,1.20
2017-09-16T11:59:11.445Z,1.00
2017-09-16T12:01:38.890Z,1.00
2017-09-16T12:04:07.217Z,1.20
2017-09-16T12:06:34.690Z,1.30
2017-09-16T12:09:02.170Z,1.10
2017-09-16T12:11:30.385Z,0.70
2017-09-16T12:13:57.830Z,0.77
2017-09-16T12:16:26.105Z,0.80
2017-09-16T12:18:54.308Z,0.93
2017-09-16T12:21:21.785Z,0.97
2017-09-16T12:23:49.285Z,1.10
2017-09-16T12:26:16.849Z,0.70
2017-09-16T12:28:44.301Z,1.13
2017-09-16T12:31:11.772Z,0.60
2017-09-16T12:33:39.225Z,0.70
2017-09-16T12:36:06.684Z,1.10
2017-09-16T12:38:34.145Z,0.80
2017-09-16T12:41:01.593Z,0.90
2017-09-16T12:43:29.052Z,1.00
2017-09-16T12:45:56.515Z,0.80
2017-09-16T12:48:23.983Z,0.93
2017-09-16T12:50:51.441Z,1.00
2017-09-16T12:53:18.996Z,1.33
2017-09-16T12:55:46.454Z,1.10
2017-09-16T12:58:13.904Z,0.93
2017-09-16T13:00:42.120Z,1.30
2017-09-16T13:03:09.605Z,0.97
2017-09-16T13:05:37.065Z,0.97
2017-09-16T13:08:04.524Z,0.90
2017-09-16T13:10:31.979Z,1.40
2017-09-16T13:12:59.425Z,1.03
2017-09-16T13:15:26.893Z,1.20
2017-09-16T13:17:54.338Z,1.30
2017-09-16T13:20:21.793Z,0.80
2017-09-16T13:22:50.046Z,1.30
2017-09-16T13:25:17.488Z,1.23
2017-09-16T13:27:44.933Z,1.17
2017-09-16T13:30:12.408Z,0.97
2017-09-16T13:32:39.865Z,0.90
2017-09-16T13:35:07.340Z,0.90
2017-09-16T13:37:35.809Z,1.13
2017-09-16T13:40:03.292Z,1.00
2017-09-16T13:42:30.753Z,0.90
2017-09-16T13:44:58.217Z,0.90
2017-09-16T13:47:25.676Z,0.70
2017-09-16T13:49:53.135Z,1.07
2017-09-16T13:52:20.617Z,1.33
2017-09-16T13:54:48.061Z,1.03
2017-09-16T13:57:15.512Z,0.83
2017-09-16T13:59:42.986Z,1.13
2017-09-16T14:02:10.445Z,1.10
2017-09-16T14:04:37.902Z,0.90
2017-09-16T14:07:05.350Z,0.90
2017-09-16T14:09:32.845Z,0.80
2017-09-16T14:12:00.297Z,0.93
2017-09-16T14:14:27.748Z,1.10
2017-09-16T14:16:55.200Z,0.87
2017-09-16T14:19:22.678Z,0.80
2017-09-16T14:21:50.157Z,0.87
2017-09-16T14:24:17.625Z,0.90
2017-09-16T14:26:45.109Z,1.30
2017-09-16T14:29:12.656Z,0.70
2017-09-16T14:31:40.128Z,0.87
2017-09-16T14:34:07.748Z,0.90
2017-09-16T14:36:35.208Z,1.03
2017-09-16T14:39:02.679Z,1.00
2017-09-16T14:41:30.137Z,0.87
2017-09-16T14:43:57.620Z,0.60
2017-09-16T14:46:25.068Z,0.90
2017-09-16T14:48:52.525Z,1.50
2017-09-16T14:51:19.985Z,0.73
2017-09-16T14:53:48.072Z,1.10
2017-09-16T14:56:15.525Z,0.90
2017-09-16T14:58:42.984Z,0.90
2017-09-16T15:01:10.443Z,0.90
2017-09-16T15:03:37.889Z,0.93
2017-09-16T15:06:06.114Z,0.90
2017-09-16T15:08:33.577Z,1.03
2017-09-16T15:11:01.037Z,1.03
2017-09-16T15:13:28.489Z,0.83
2017-09-16T15:15:55.941Z,0.90
2017-09-16T15:18:23.403Z,0.97
2017-09-16T15:20:50.855Z,1.20
2017-09-16T15:23:18.298Z,1.00
2017-09-16T15:25:46.568Z,0.83
2017-09-16T15:28:14.005Z,1.13
2017-09-16T15:30:41.453Z,1.50
2017-09-16T15:33:08.925Z,1.60
2017-09-16T15:35:36.382Z,1.10
2017-09-16T15:38:03.836Z,1.30
2017-09-16T15:40:31.285Z,1.20
2017-09-16T15:42:58.749Z,1.67
2017-09-16T15:45:26.200Z,1.20
2017-09-16T15:47:53.705Z,1.30
2017-09-16T15:50:21.177Z,1.20
2017-09-16T15:52:48.640Z,1.23
2017-09-16T15:55:16.101Z,1.73
2017-09-16T15:57:43.548Z,1.10
2017-09-16T16:00:11.014Z,1.43
2017-09-16T16:02:38.462Z,1.30
2017-09-16T16:05:05.925Z,0.90
2017-09-16T16:07:33.589Z,1.30
2017-09-16T16:10:01.045Z,1.33
2017-09-16T16:12:28.506Z,1.67
2017-09-16T16:14:55.977Z,1.00
2017-09-16T16:17:23.434Z,1.10
2017-09-16T16:19:50.884Z,1.40
2017-09-16T16:22:18.336Z,1.03
2017-09-16T16:24:46.556Z,1.50
2017-09-16T16:27:14.021Z,1.70
2017-09-16T16:29:41.465Z,1.60
2017-09-16T16:32:08.925Z,1.20
2017-09-16T16:34:36.369Z,1.70
2017-09-16T16:37:04.597Z,1.00
2017-09-16T16:39:32.045Z,1.67
2017-09-16T16:41:59.529Z,1.40
2017-09-16T16:44:27.740Z,1.57
2017-09-16T16:46:55.952Z,2.63
2017-09-16T16:49:23.404Z,1.83
2017-09-16T16:51:50.854Z,1.53
2017-09-16T16:54:19.109Z,1.63
2017-09-16T16:56:46.554Z,1.87
2017-09-16T16:59:14.008Z,2.20
2017-09-16T17:01:41.460Z,1.67
2017-09-16T17:04:08.903Z,3.10
2017-09-16T17:06:36.342Z,2.40
2017-09-16T17:09:04.588Z,1.67
2017-09-16T17:11:32.041Z,2.23
2017-09-16T17:13:59.510Z,2.40
2017-09-16T17:16:26.965Z,2.90
2017-09-16T17:18:54.399Z,2.80
2017-09-16T17:21:21.858Z,2.50
2017-09-16T17:23:50.077Z,2.50
2017-09-16T17:26:17.533Z,2.03
2017-09-16T17:28:44.986Z,2.33
2017-09-16T17:31:12.460Z,3.37
2017-09-16T17:33:39.900Z,2.63
2017-09-16T17:36:07.348Z,2.20
2017-09-16T17:38:34.806Z,2.50
2017-09-16T17:41:02.252Z,2.40
2017-09-16T17:43:30.485Z,2.40
2017-09-16T17:45:58.697Z,2.17
2017-09-16T17:48:26.179Z,2.20
2017-09-16T17:50:54.409Z,3.47
2017-09-16T17:53:21.853Z,2.60
2017-09-16T17:55:49.313Z,2.77
2017-09-16T17:58:16.776Z,2.90
2017-09-16T18:00:44.225Z,2.77
2017-09-16T18:03:11.686Z,2.27
2017-09-16T18:05:39.920Z,2.70
2017-09-16T18:08:07.370Z,2.47
2017-09-16T18:10:34.850Z,2.87
2017-09-16T18:13:02.317Z,1.93
2017-09-16T18:15:32.983Z,2.67
2017-09-16T18:18:01.200Z,2.50
2017-09-16T18:20:28.657Z,2.30
2017-09-16T18:22:56.116Z,2.00
2017-09-16T18:25:23.572Z,2.33
2017-09-16T18:27:51.032Z,3.40
2017-09-16T18:30:18.485Z,2.93
2017-09-16T18:32:45.934Z,2.20
2017-09-16T18:35:14.166Z,2.10
2017-09-16T18:37:41.613Z,2.37
2017-09-16T18:40:09.066Z,2.67
2017-09-16T18:42:36.520Z,2.37
2017-09-16T18:45:03.994Z,3.40
2017-09-16T18:47:31.431Z,4.10
2017-09-16T18:49:59.656Z,2.77
2017-09-16T18:52:27.110Z,2.43
2017-09-16T18:54:54.569Z,1.90
2017-09-16T18:57:22.021Z,1.70
2017-09-16T18:59:49.505Z,1.80
2017-09-16T19:02:16.953Z,2.00
2017-09-16T19:04:44.413Z,2.00
2017-09-16T19:07:11.872Z,1.97
2017-09-16T19:09:39.333Z,1.70
2017-09-16T19:12:06.800Z,1.50
2017-09-16T19:14:34.265Z,1.73
2017-09-16T19:17:01.735Z,2.70
2017-09-16T19:19:29.185Z,2.57
2017-09-16T19:21:56.648Z,4.23
2017-09-16T19:24:24.095Z,2.53
2017-09-16T19:26:52.322Z,2.83
2017-09-16T19:29:19.768Z,1.90
2017-09-16T19:31:47.254Z,2.07
2017-09-16T19:34:14.712Z,2.03
2017-09-16T19:36:42.165Z,1.60
2017-09-16T19:39:09.635Z,2.27
2017-09-16T19:41:37.867Z,2.63
2017-09-16T19:44:06.162Z,2.07
2017-09-16T19:46:33.612Z,1.90
2017-09-16T19:49:01.828Z,2.33
2017-09-16T19:51:30.094Z,1.93
2017-09-16T19:53:58.293Z,2.00
2017-09-16T19:56:25.745Z,2.33
2017-09-16T19:58:53.248Z,1.93
2017-09-16T20:01:20.692Z,1.87
2017-09-16T20:03:48.149Z,1.77
2017-09-16T20:06:15.617Z,1.50
2017-09-16T20:08:43.061Z,1.90
2017-09-16T20:11:10.517Z,2.50
2017-09-16T20:13:37.974Z,1.90
2017-09-16T20:16:05.436Z,1.70
2017-09-16T20:18:32.880Z,1.70
2017-09-16T20:21:00.336Z,1.93
2017-09-16T20:23:28.549Z,2.20
2017-09-16T20:25:56.029Z,2.20
2017-09-16T20:28:23.484Z,1.93
2017-09-16T20:30:50.929Z,2.23
2017-09-16T20:33:18.388Z,2.03
2017-09-16T20:35:45.852Z,2.47
2017-09-16T20:38:13.305Z,2.30
2017-09-16T20:40:40.757Z,3.03
2017-09-16T20:43:08.241Z,3.30
2017-09-16T20:45:35.684Z,3.53
2017-09-16T20:48:03.932Z,2.90
2017-09-16T20:50:31.410Z,3.10
2017-09-16T20:52:59.629Z,2.10
2017-09-16T20:55:27.093Z,1.60
2017-09-16T20:57:54.546Z,2.63
2017-09-16T21:00:22.001Z,1.70
2017-09-16T21:02:49.465Z,2.20
2017-09-16T21:05:16.921Z,1.50
2017-09-16T21:07:45.133Z,2.13
2017-09-16T21:10:12.625Z,1.83
2017-09-16T21:12:40.085Z,2.20
2017-09-16T21:15:07.529Z,1.77
2017-09-16T21:17:34.994Z,1.80
2017-09-16T21:20:02.437Z,1.87
2017-09-16T21:22:29.898Z,1.97
2017-09-16T21:24:57.360Z,3.00
2017-09-16T21:27:24.824Z,2.40
2017-09-16T21:29:52.273Z,2.83
2017-09-16T21:32:19.737Z,3.50
2017-09-16T21:34:47.188Z,3.50
2017-09-16T21:37:15.432Z,4.80
2017-09-16T21:39:42.885Z,4.20
2017-09-16T21:42:10.349Z,2.70
2017-09-16T21:44:37.808Z,3.20
2017-09-16T21:47:05.265Z,2.60
2017-09-16T21:49:32.722Z,2.53
2017-09-16T21:52:00.165Z,2.33
2017-09-16T21:54:27.629Z,3.00
2017-09-16T21:56:55.080Z,2.33
2017-09-16T21:59:22.541Z,2.90
2017-09-16T22:01:49.991Z,2.57
2017-09-16T22:04:18.242Z,2.40
2017-09-16T22:06:45.689Z,2.23
2017-09-16T22:09:14.130Z,1.90
2017-09-16T22:11:41.597Z,2.23
2017-09-16T22:14:09.053Z,2.23
2017-09-16T22:16:36.517Z,2.27
2017-09-16T22:19:04.725Z,2.13
2017-09-16T22:21:32.585Z,2.30
2017-09-16T22:24:00.030Z,2.43
2017-09-16T22:26:28.256Z,2.40
2017-09-16T22:28:55.712Z,2.30
2017-09-16T22:31:23.197Z,2.20
2017-09-16T22:33:50.657Z,2.20
2017-09-16T22:36:18.112Z,2.57
2017-09-16T22:38:45.574Z,3.50
2017-09-16T22:41:13.033Z,2.77
2017-09-16T22:43:40.497Z,3.00
2017-09-16T22:46:07.932Z,2.90
2017-09-16T22:48:35.382Z,3.53
2017-09-16T22:51:02.868Z,2.90
2017-09-16T22:53:30.355Z,3.50
2017-09-16T22:55:57.813Z,2.40
2017-09-16T22:58:25.279Z,3.23
2017-09-16T23:00:52.752Z,2.93
2017-09-16T23:03:20.196Z,3.30
2017-09-16T23:05:47.660Z,3.00
2017-09-16T23:08:15.113Z,3.00
2017-09-16T23:10:42.584Z,3.40
2017-09-16T23:13:10.046Z,2.70
2017-09-16T23:15:37.515Z,3.57
2017-09-16T23:18:04.978Z,2.80
2017-09-16T23:20:33.188Z,3.10
2017-09-16T23:23:00.645Z,2.83
2017-09-16T23:25:28.101Z,2.80
2017-09-16T23:27:55.565Z,2.60
2017-09-16T23:30:23.012Z,2.93
2017-09-16T23:32:50.502Z,2.33
2017-09-16T23:35:17.960Z,2.50
2017-09-16T23:37:45.413Z,2.50
2017-09-16T23:40:12.876Z,2.20
2017-09-16T23:42:40.325Z,2.53
2017-09-16T23:45:07.793Z,2.13
2017-09-16T23:47:35.248Z,2.70
2017-09-16T23:50:02.738Z,1.93
2017-09-16T23:52:30.185Z,2.70
2017-09-16T23:54:57.631Z,2.33
2017-09-16T23:57:25.845Z,2.00
2017-09-16T23:59:54.093Z,1.70
